Time;durP1;ratioP1;P1;durP2;ratioP2;P2;SDS_P1;SDS_P2;PMS_P1;PMS_P2;Temp;Humidity;BMP_temperature;BMP_pressure;BME280_temperature;BME280_humidity;BME280_pressure;Samples;Min_cycle;Max_cycle;Signal;HPM_P1;HPM_P2
2022/07/19 00:00:28;;;;;;;0.40;0.20;;;;;;;23.60;45.84;99620.34;6247279;23;20152;-90
2022/07/19 00:02:54;;;;;;;1.17;0.50;;;;;;;23.57;45.93;99616.16;6220592;23;20580;-90
2022/07/19 00:05:20;;;;;;;3.07;0.40;;;;;;;23.52;46.57;99615.75;6220997;23;20149;-89
2022/07/19 00:07:46;;;;;;;1.77;0.50;;;;;;;23.40;46.58;99608.91;6220491;23;20156;-91
2022/07/19 00:10:13;;;;;;;0.77;0.40;;;;;;;23.28;46.74;99607.41;6220542;23;20153;-90
2022/07/19 00:12:39;;;;;;;1.50;0.20;;;;;;;23.19;46.53;99611.00;6246940;23;20145;-89
2022/07/19 00:15:08;;;;;;;1.03;0.50;;;;;;;23.19;46.85;99613.69;6220391;23;20572;-90
2022/07/19 00:17:34;;;;;;;1.33;0.47;;;;;;;23.14;46.98;99615.94;6221127;23;20153;-90
2022/07/19 00:20:00;;;;;;;1.67;0.77;;;;;;;23.11;47.38;99613.56;6246615;23;20160;-89
2022/07/19 00:22:25;;;;;;;4.40;0.73;;;;;;;23.11;47.21;99610.91;6221247;23;20145;-89
2022/07/19 00:24:51;;;;;;;3.03;1.03;;;;;;;23.08;47.16;99606.69;6221334;23;20218;-90
2022/07/19 00:27:16;;;;;;;1.13;0.40;;;;;;;23.10;47.22;99603.84;6247555;23;20149;-89
2022/07/19 00:29:42;;;;;;;1.03;0.50;;;;;;;23.09;47.24;99604.84;6247151;23;20157;-90
2022/07/19 00:32:08;;;;;;;1.30;0.40;;;;;;;22.95;47.34;99603.53;6246750;23;20468;-89
2022/07/19 00:34:33;;;;;;;1.00;0.40;;;;;;;22.95;47.41;99602.66;6220251;23;20157;-90
2022/07/19 00:36:59;;;;;;;4.80;0.63;;;;;;;22.82;47.99;99603.00;6219522;23;20623;-89
2022/07/19 00:39:24;;;;;;;0.77;0.47;;;;;;;22.75;48.04;99599.22;6220115;23;20251;-90
2022/07/19 00:41:50;;;;;;;1.77;0.53;;;;;;;22.71;48.43;99600.50;6220042;23;20156;-90
2022/07/19 00:44:15;;;;;;;8.83;0.73;;;;;;;22.79;48.25;99603.28;6220452;23;20564;-91
2022/07/19 00:46:41;;;;;;;1.93;0.60;;;;;;;22.77;48.00;99601.75;6246110;23;20141;-89
2022/07/19 00:52:28;;;;;;;2.50;0.97;;;;;;;22.47;49.76;99598.31;6247190;23;20192;-89
2022/07/19 00:54:54;;;;;;;2.93;1.10;;;;;;;22.41;49.65;99593.53;6246402;23;20572;-89
2022/07/19 00:57:22;;;;;;;4.20;1.20;;;;;;;22.36;50.12;99600.28;6219871;23;20152;-90
2022/07/19 00:59:50;;;;;;;1.70;0.80;;;;;;;22.26;50.20;99600.31;6219986;23;20563;-89
2022/07/19 01:02:16;;;;;;;1.37;0.60;;;;;;;22.17;50.78;99592.31;6246433;23;20152;-89
2022/07/19 01:04:42;;;;;;;1.73;0.50;;;;;;;22.13;50.86;99593.56;6246388;23;20149;-89
2022/07/19 01:07:07;;;;;;;1.57;0.60;;;;;;;22.09;50.49;99597.53;6219854;23;20164;-89
2022/07/19 01:09:36;;;;;;;6.10;0.90;;;;;;;21.98;51.11;99601.19;6246328;23;20211;-89
2022/07/19 01:12:02;;;;;;;1.87;0.70;;;;;;;21.89;51.20;99602.03;6246302;23;20149;-88
2022/07/19 01:14:27;;;;;;;2.27;0.87;;;;;;;21.88;51.67;99601.16;6245975;23;20477;-89
2022/07/19 01:16:53;;;;;;;4.13;0.80;;;;;;;21.88;51.29;99597.69;6219584;23;20254;-89
2022/07/19 01:19:18;;;;;;;3.67;1.20;;;;;;;21.83;51.47;99600.72;6246275;23;20160;-90
2022/07/19 01:21:44;;;;;;;2.63;1.13;;;;;;;21.78;51.82;99596.78;6246660;23;20486;-91
2022/07/19 01:24:10;;;;;;;2.50;1.07;;;;;;;21.74;51.75;99592.72;6219007;23;20157;-89
2022/07/19 01:26:36;;;;;;;1.90;0.60;;;;;;;21.67;52.20;99592.41;6244853;23;20151;-89
2022/07/19 01:29:01;;;;;;;4.57;1.10;;;;;;;21.51;52.63;99591.31;6218638;23;20160;-90
2022/07/19 01:31:27;;;;;;;2.37;1.37;;;;;;;21.41;52.94;99591.28;6217722;23;20157;-88
2022/07/19 01:33:52;;;;;;;2.53;1.13;;;;;;;21.41;53.00;99589.44;6244920;23;20560;-89
2022/07/19 01:36:18;;;;;;;1.47;0.70;;;;;;;21.25;53.37;99586.47;6245509;23;20172;-89
2022/07/19 01:38:43;;;;;;;2.47;0.70;;;;;;;21.34;52.82;99593.66;6246258;23;20145;-88
2022/07/19 01:41:09;;;;;;;5.70;0.90;;;;;;;21.27;53.20;99589.00;6219663;23;20480;-89
2022/07/19 01:43:34;;;;;;;3.50;0.73;;;;;;;21.25;53.37;99585.66;6246083;23;20172;-89
2022/07/19 01:46:00;;;;;;;3.33;0.63;;;;;;;21.19;53.49;99589.69;6246550;23;20140;-90
2022/07/19 01:48:26;;;;;;;1.87;0.60;;;;;;;21.22;53.56;99581.44;6219763;23;20152;-90
2022/07/19 01:50:51;;;;;;;2.93;0.60;;;;;;;21.28;53.27;99590.69;6219736;23;20160;-89
2022/07/19 01:53:17;;;;;;;2.57;0.77;;;;;;;21.28;52.97;99590.69;6246363;23;20222;-90
2022/07/19 01:55:42;;;;;;;0.67;0.43;;;;;;;21.20;53.05;99583.38;6219841;23;20185;-89
2022/07/19 01:58:09;;;;;;;2.30;0.60;;;;;;;21.04;53.89;99592.84;6245782;23;20469;-89
2022/07/19 02:00:36;;;;;;;2.13;0.83;;;;;;;20.90;54.16;99596.72;6246625;23;20223;-89
2022/07/19 02:03:03;;;;;;;1.67;0.80;;;;;;;20.95;53.95;99605.16;6246274;23;20145;-88
2022/07/19 02:05:29;;;;;;;0.50;0.33;;;;;;;21.00;53.67;99597.59;6246302;23;20156;-89
2022/07/19 02:07:56;;;;;;;10.30;0.67;;;;;;;21.10;53.51;99593.16;6246217;23;20145;-88
2022/07/19 02:10:23;;;;;;;1.57;0.73;;;;;;;21.13;53.20;99600.91;6219436;23;20157;-88
2022/07/19 02:12:50;;;;;;;0.77;0.53;;;;;;;21.17;52.77;99591.63;6246232;23;20145;-90
2022/07/19 02:15:16;;;;;;;1.93;0.50;;;;;;;21.13;53.14;99586.72;6219469;23;20199;-89
2022/07/19 02:17:43;;;;;;;1.77;0.70;;;;;;;21.10;52.98;99592.31;6246284;23;20153;-89
2022/07/19 02:20:12;;;;;;;1.73;0.60;;;;;;;20.99;53.38;99595.09;6245930;23;20268;-90
2022/07/19 02:22:39;;;;;;;1.20;0.67;;;;;;;20.82;53.82;99593.88;6246042;23;20149;-90
2022/07/19 02:25:06;;;;;;;1.17;0.50;;;;;;;20.71;54.50;99592.16;6219810;23;20153;-89
2022/07/19 02:27:33;;;;;;;2.00;0.87;;;;;;;20.68;54.60;99587.09;6247626;23;20145;-89
2022/07/19 02:30:01;;;;;;;2.23;0.80;;;;;;;20.67;54.32;99592.56;6221416;23;20236;-89
2022/07/19 02:32:28;;;;;;;2.10;0.97;;;;;;;20.70;54.08;99589.63;6247769;23;20155;-90
2022/07/19 02:34:55;;;;;;;0.80;0.50;;;;;;;20.79;54.11;99589.66;6248203;23;20232;-89
2022/07/19 02:37:22;;;;;;;0.90;0.50;;;;;;;20.74;54.45;99593.72;6248026;23;20188;-90
2022/07/19 02:39:49;;;;;;;1.27;0.53;;;;;;;20.66;54.63;99593.53;6221528;23;20149;-89
2022/07/19 02:42:15;;;;;;;1.67;0.40;;;;;;;20.48;55.22;99589.78;6247865;23;20149;-90
2022/07/19 02:44:42;;;;;;;1.47;0.63;;;;;;;20.49;55.00;99589.66;6221238;23;20232;-90
2022/07/19 02:47:09;;;;;;;1.70;0.50;;;;;;;20.55;54.50;99590.94;6222246;23;20226;-90
2022/07/19 02:49:36;;;;;;;2.77;0.40;;;;;;;20.62;54.47;99592.13;6221677;23;20263;-89
2022/07/19 02:52:03;;;;;;;0.93;0.50;;;;;;;20.65;54.46;99592.69;6248075;23;20562;-90
2022/07/19 02:54:29;;;;;;;2.80;0.60;;;;;;;20.64;54.55;99591.00;6221251;23;20157;-89
2022/07/19 02:56:56;;;;;;;4.10;0.70;;;;;;;20.53;54.90;99592.91;6247480;23;20184;-89
2022/07/19 02:59:23;;;;;;;1.27;0.57;;;;;;;20.36;55.76;99590.84;6248189;23;20213;-89
2022/07/19 03:01:50;;;;;;;1.53;0.67;;;;;;;20.41;55.65;99588.63;6221028;23;20622;-89
2022/07/19 03:04:16;;;;;;;1.53;0.60;;;;;;;20.49;55.30;99602.16;6247886;23;20145;-89
2022/07/19 03:06:43;;;;;;;2.63;0.43;;;;;;;20.41;55.69;99596.63;6221576;23;20282;-89
2022/07/19 03:09:11;;;;;;;1.60;0.77;;;;;;;20.35;56.30;99594.47;6221188;23;20486;-89
2022/07/19 03:11:38;;;;;;;1.70;0.70;;;;;;;20.28;56.81;99598.66;6247568;23;20156;-90
2022/07/19 03:14:05;;;;;;;2.20;0.80;;;;;;;20.17;56.91;99597.72;6220938;23;20283;-88
2022/07/19 03:16:32;;;;;;;0.80;0.30;;;;;;;20.28;57.02;99588.84;6247529;23;20176;-91
2022/07/19 03:18:58;;;;;;;1.33;0.43;;;;;;;20.30;56.84;99586.91;6248310;23;20159;-89
2022/07/19 03:21:25;;;;;;;2.03;0.83;;;;;;;20.29;56.85;99592.34;6220703;23;20211;-90
2022/07/19 03:23:52;;;;;;;1.53;0.40;;;;;;;20.18;57.88;99587.88;6221048;23;20152;-90
2022/07/19 03:26:19;;;;;;;0.90;0.40;;;;;;;20.18;58.18;99598.53;6247468;23;20145;-89
2022/07/19 03:28:45;;;;;;;1.30;0.70;;;;;;;20.21;58.17;99598.28;6220791;23;20156;-89
2022/07/19 03:31:12;;;;;;;2.23;0.60;;;;;;;20.10;57.96;99601.00;6221292;23;20234;-89
2022/07/19 03:33:39;;;;;;;1.97;0.50;;;;;;;20.07;57.87;99596.78;6220904;23;20180;-90
2022/07/19 03:36:06;;;;;;;1.03;0.50;;;;;;;19.99;58.35;99604.59;6247937;23;20584;-89
2022/07/19 03:38:31;;;;;;;2.20;1.13;;;;;;;19.97;58.29;99608.31;6246921;23;20171;-90
2022/07/19 03:40:57;;;;;;;0.80;0.50;;;;;;;20.00;58.18;99606.25;6220970;23;20604;-91
2022/07/19 03:43:23;;;;;;;2.97;1.53;;;;;;;19.96;58.13;99612.81;6247435;23;20211;-89
2022/07/19 03:45:49;;;;;;;3.40;1.00;;;;;;;19.96;58.46;99619.97;6220912;23;20149;-90
2022/07/19 03:48:14;;;;;;;7.63;0.80;;;;;;;19.97;58.55;99616.31;6221562;23;20153;-89
2022/07/19 03:50:40;;;;;;;1.90;0.80;;;;;;;19.95;58.49;99615.59;6247564;23;20641;-90
2022/07/19 03:53:06;;;;;;;1.47;0.77;;;;;;;19.91;58.59;99615.03;6220739;23;20152;-90
2022/07/19 03:55:32;;;;;;;2.10;0.93;;;;;;;19.99;58.55;99617.91;6220523;23;20181;-91
2022/07/19 03:57:57;;;;;;;2.67;0.90;;;;;;;20.04;58.11;99614.84;6247290;23;20575;-89
2022/07/19 04:00:23;;;;;;;1.73;0.73;;;;;;;20.01;58.20;99612.44;6247139;23;20157;-90
2022/07/19 04:02:49;;;;;;;1.50;1.03;;;;;;;19.96;58.20;99619.97;6220613;23;20153;-89
2022/07/19 04:05:14;;;;;;;1.40;0.63;;;;;;;19.90;58.36;99621.31;6221103;23;20153;-90
2022/07/19 04:07:40;;;;;;;1.73;0.70;;;;;;;19.91;58.38;99617.69;6247049;23;20261;-91
2022/07/19 04:10:06;;;;;;;1.93;0.83;;;;;;;20.01;58.14;99620.41;6247461;23;20149;-89
2022/07/19 04:12:31;;;;;;;1.57;0.70;;;;;;;20.05;57.92;99609.38;6247389;23;20539;-89
2022/07/19 04:14:57;;;;;;;1.70;0.90;;;;;;;20.01;58.35;99623.06;6220496;23;20163;-89
2022/07/19 04:17:23;;;;;;;3.80;1.27;;;;;;;20.08;58.65;99624.25;6246818;23;20177;-89
2022/07/19 04:19:49;;;;;;;2.87;1.10;;;;;;;20.22;58.32;99611.47;6220319;23;20462;-90
2022/07/19 04:22:15;;;;;;;1.80;0.70;;;;;;;20.34;58.07;99609.59;6220437;23;20166;-89
2022/07/19 04:24:40;;;;;;;2.80;0.60;;;;;;;20.44;57.85;99610.50;6246960;23;20526;-90
2022/07/19 04:27:06;;;;;;;2.63;0.80;;;;;;;20.54;58.06;99613.25;6220554;23;20149;-88
2022/07/19 04:29:31;;;;;;;1.93;0.87;;;;;;;20.52;58.75;99610.69;6220625;23;20157;-90
2022/07/19 04:31:57;;;;;;;8.93;1.53;;;;;;;20.54;59.08;99610.56;6220761;23;20564;-88
2022/07/19 04:34:22;;;;;;;1.07;0.50;;;;;;;20.60;59.65;99607.38;6246749;23;20149;-91
2022/07/19 04:36:48;;;;;;;1.50;0.67;;;;;;;20.90;58.65;99612.72;6246740;23;20236;-89
2022/07/19 04:39:14;;;;;;;1.50;0.57;;;;;;;21.09;58.69;99604.81;6243395;23;20493;-90
2022/07/19 04:41:39;;;;;;;1.50;0.80;;;;;;;21.22;59.10;99608.09;6218696;23;20157;-91
2022/07/19 04:44:04;;;;;;;2.83;0.97;;;;;;;21.31;59.62;99604.59;6219301;23;20153;-90
2022/07/19 04:46:36;;;;;;;0.80;0.37;;;;;;;21.45;59.42;99614.03;6245565;23;20141;-91
2022/07/19 04:49:06;;;;;;;1.03;0.50;;;;;;;21.55;59.31;99614.88;6245119;23;20181;-90
2022/07/19 04:51:32;;;;;;;1.53;0.30;;;;;;;21.63;59.26;99606.19;6219033;23;20208;-90
2022/07/19 04:53:57;;;;;;;2.50;0.30;;;;;;;21.79;58.42;99611.81;6245492;23;20591;-90
2022/07/19 04:56:23;;;;;;;3.43;0.50;;;;;;;21.85;57.71;99606.78;6218419;23;20579;-90
2022/07/19 04:58:48;;;;;;;0.83;0.20;;;;;;;21.94;57.03;99605.97;6220438;23;20168;-89
2022/07/19 05:01:16;;;;;;;0.47;0.20;;;;;;;21.99;56.52;99610.88;6220030;23;20153;-90
2022/07/19 05:03:42;;;;;;;0.73;0.40;;;;;;;21.92;57.51;99612.41;6246374;23;20510;-92
2022/07/19 05:06:07;;;;;;;0.40;0.30;;;;;;;22.18;56.84;99612.69;6220286;23;20163;-90
2022/07/19 05:08:33;;;;;;;1.00;0.57;;;;;;;22.25;56.95;99609.28;6245685;23;20149;-89
2022/07/19 05:10:59;;;;;;;6.33;0.60;;;;;;;22.34;55.87;99605.78;6219990;23;20157;-88
2022/07/19 05:13:29;;;;;;;0.70;0.43;;;;;;;22.44;55.96;99611.94;6220334;23;20163;-90
2022/07/19 05:15:54;;;;;;;5.93;0.70;;;;;;;22.69;55.21;99612.34;6219885;23;20173;-91
2022/07/19 05:18:20;;;;;;;0.97;0.30;;;;;;;22.80;54.88;99610.31;6246477;23;20145;-90
2022/07/19 05:20:45;;;;;;;1.03;0.40;;;;;;;22.80;55.25;99604.16;6219415;23;20618;-91
2022/07/19 05:25:57;;;;;;;0.23;0.20;;;;;;;23.15;53.71;99614.94;6245643;23;20171;-91
2022/07/19 05:28:38;;;;;;;1.80;0.60;;;;;;;23.29;54.02;99614.47;6246742;23;20224;-92
2022/07/19 05:31:38;;;;;;;0.70;0.40;;;;;;;23.57;53.29;99615.28;6220262;23;20568;-92
2022/07/19 05:37:53;;;;;;;0.77;0.30;;;;;;;23.88;51.67;99613.09;6094883;23;20283;-91
2022/07/19 05:41:27;;;;;;;;;;;;;;;;;;;;;
2022/07/19 05:52:23;;;;;;;;;;;;;;;;;;;;;
2022/07/19 06:13:22;;;;;;;1.33;0.57;;;;;;;25.32;46.82;99612.41;5692153;25;20296;-92
2022/07/19 06:20:11;;;;;;;1.10;0.60;;;;;;;25.56;46.24;99610.66;5726303;25;20256;-93
2022/07/19 06:26:51;;;;;;;2.00;0.90;;;;;;;25.35;46.92;99612.06;5847794;24;20249;-89
2022/07/19 06:33:47;;;;;;;2.07;1.00;;;;;;;25.59;46.43;99610.34;5768142;24;20299;-90
2022/07/19 06:43:39;;;;;;;;;;;;;;;;;;;;;
2022/07/19 06:54:14;;;;;;;2.07;0.70;;;;;;;26.93;39.90;99609.84;5866536;24;20252;-90
2022/07/19 06:57:31;;;;;;;;;;;;;;;;;;;;;
2022/07/19 07:13:48;;;;;;;1.65;0.80;;;;;;;28.04;36.71;99608.59;5876705;24;20161;-90
2022/07/19 07:28:28;;;;;;;;;;;;;;;;;;;;;
2022/07/19 08:23:44;;;;;;;4.57;0.32;;;;;;;32.57;27.44;99562.81;5808509;24;20287;-92
2022/07/19 12:35:11;;;;;;;1.00;0.20;;;;;;;36.40;19.84;99371.50;6195040;22;20257;31
2022/07/19 13:04:48;;;;;;;0.35;0.10;;;;;;;34.44;21.70;99341.72;6206538;22;20289;-92
2022/07/19 13:17:56;;;;;;;1.30;0.30;;;;;;;35.55;21.31;99328.38;6125651;23;20182;-92
2022/07/19 13:28:03;;;;;;;0.30;0.10;;;;;;;35.98;20.63;99327.97;6169910;22;20209;-90
2022/07/19 14:04:47;;;;;;;0.80;0.30;;;;;;;35.27;21.39;99316.47;6221763;23;20153;-95
2022/07/19 14:15:02;;;;;;;0.98;0.28;;;;;;;35.08;21.28;99304.84;6102006;23;20167;-96
2022/07/19 14:25:08;;;;;;;1.33;0.40;;;;;;;34.08;22.21;99300.09;5929363;24;20654;-93
2022/07/19 14:31:41;;;;;;;;;;;;;;;;;;;;;
2022/07/19 14:38:11;;;;;;;1.65;0.77;;;;;;;34.43;23.36;99288.34;5822092;24;20309;-95
2022/07/19 14:59:23;;;;;;;1.65;0.50;;;;;;;33.84;22.83;99277.34;5749588;24;20235;-94
2022/07/19 15:02:55;;;;;;;1.40;0.40;;;;;;;34.37;22.32;99280.25;5772360;24;20577;-92
2022/07/19 15:09:25;;;;;;;;;;;;;;;;;;;;;
2022/07/19 15:12:27;;;;;;;0.45;0.25;;;;;;;35.44;21.50;99266.44;5943602;24;20606;-92
2022/07/19 15:14:58;;;;;;;0.45;0.20;;;;;;;35.00;21.38;99261.53;5900399;24;20176;-92
2022/07/19 15:19:02;;;;;;;;;;;;;;;;;;;;;
2022/07/19 15:21:29;;;;;;;;;;;;;;;;;;;;;
2022/07/19 15:24:26;;;;;;;3.72;0.40;;;;;;;34.71;21.85;99278.75;5955013;24;20243;-91
2022/07/19 15:27:21;;;;;;;1.30;0.40;;;;;;;34.51;22.01;99268.94;5979509;23;20180;-95
2022/07/19 15:29:49;;;;;;;0.93;0.40;;;;;;;34.42;22.30;99274.97;6072772;23;20160;-92
2022/07/19 15:32:23;;;;;;;3.60;0.60;;;;;;;34.47;22.16;99269.66;6098086;23;20200;-93
2022/07/19 15:34:55;;;;;;;2.42;0.50;;;;;;;34.59;22.62;99273.28;6110416;23;20246;-92
2022/07/19 15:37:23;;;;;;;3.42;0.45;;;;;;;33.81;22.81;99266.91;6159694;23;20257;-91
2022/07/19 15:40:33;;;;;;;7.25;0.95;;;;;;;33.78;23.25;99275.53;6161238;23;20474;-93
2022/07/19 15:43:36;;;;;;;2.92;0.32;;;;;;;33.99;23.07;99273.16;6093054;23;20182;-91
2022/07/19 15:46:28;;;;;;;0.35;0.20;;;;;;;33.37;23.24;99274.25;6161335;23;20640;-91
2022/07/19 15:49:23;;;;;;;0.95;0.40;;;;;;;33.25;22.86;99267.88;6161352;23;20562;-91
2022/07/19 15:52:00;;;;;;;2.30;0.47;;;;;;;32.94;23.60;99265.16;6129319;23;20159;-90
2022/07/19 15:57:20;;;;;;;1.08;0.38;;;;;;;33.47;23.33;99267.44;6183050;23;20332;-94
2022/07/19 16:00:14;;;;;;;0.57;0.30;;;;;;;33.45;24.41;99272.28;6189028;23;20154;-94
2022/07/19 16:03:20;;;;;;;0.77;0.30;;;;;;;33.01;24.10;99268.69;6140636;23;20307;-90
2022/07/19 16:05:54;;;;;;;0.90;0.45;;;;;;;33.10;23.93;99261.94;6096358;23;20179;-91
2022/07/19 16:08:27;;;;;;;1.42;0.35;;;;;;;33.19;24.44;99265.22;6069390;23;20145;-94
2022/07/19 16:11:08;;;;;;;;;;;;;;;;;;;;;
2022/07/19 16:16:31;;;;;;;5.30;0.95;;;;;;;31.86;24.88;99271.59;6199497;23;20178;-91
2022/07/19 16:19:09;;;;;;;5.22;0.52;;;;;;;32.07;25.52;99274.03;6189715;23;20164;-93
2022/07/19 16:21:53;;;;;;;1.15;0.40;;;;;;;32.70;24.68;99264.13;6190181;23;20158;-91
2022/07/19 16:24:44;;;;;;;;;;;;;;;;;;;;;
2022/07/19 16:27:45;;;;;;;1.50;0.35;;;;;;;32.16;25.41;99267.31;6216685;23;20656;-93
2022/07/19 16:30:25;;;;;;;3.17;0.68;;;;;;;31.94;25.83;99271.34;6191394;23;20166;-90
2022/07/19 16:32:51;;;;;;;0.45;0.25;;;;;;;32.18;25.98;99273.34;6190123;23;20565;-89
2022/07/19 16:35:25;;;;;;;2.10;0.70;;;;;;;31.98;26.04;99275.28;6217029;23;20149;-91
2022/07/19 16:37:59;;;;;;;0.80;0.35;;;;;;;32.10;25.71;99276.31;6187056;23;20502;-91
2022/07/19 16:40:53;;;;;;;1.02;0.47;;;;;;;32.30;25.58;99269.97;6191188;23;20146;-91
2022/07/19 16:43:27;;;;;;;1.63;0.45;;;;;;;31.87;25.91;99280.53;6217465;23;20205;-92
2022/07/19 16:45:53;;;;;;;1.40;0.70;;;;;;;31.91;26.07;99281.78;6190334;23;20144;-92
2022/07/19 16:48:28;;;;;;;;;;;;;;;;;;;;;
2022/07/19 16:51:06;;;;;;;0.82;0.50;;;;;;;32.19;25.71;99280.44;6216899;23;20490;-92
2022/07/19 16:53:37;;;;;;;2.85;1.17;;;;;;;31.82;26.36;99273.03;6190344;23;20154;-92
2022/07/19 16:56:04;;;;;;;2.08;0.43;;;;;;;31.85;26.12;99267.19;6215299;23;20188;-93
2022/07/19 16:58:47;;;;;;;;;;;;;;;;;;;;;
2022/07/19 17:13:58;;;;;;;1.17;0.38;;;;;;;31.37;26.97;99268.50;6004154;22;5414242;-91
2022/07/19 17:16:27;;;;;;;1.08;0.32;;;;;;;31.63;27.03;99278.53;6224666;23;20158;-91
2022/07/19 17:18:52;;;;;;;1.02;0.57;;;;;;;31.72;26.85;99278.06;6224929;23;20606;-91
2022/07/19 17:21:18;;;;;;;3.28;1.27;;;;;;;31.83;27.26;99280.16;6198554;23;20161;-91
2022/07/19 17:23:57;;;;;;;;;;;;;;;;;;;;;
2022/07/19 17:26:26;;;;;;;1.30;0.70;;;;;;;31.41;27.16;99288.75;6217605;23;20232;-90
2022/07/19 17:28:55;;;;;;;3.92;0.57;;;;;;;31.32;27.29;99287.28;6223676;23;20145;-92
2022/07/19 17:31:20;;;;;;;1.60;0.38;;;;;;;30.96;27.36;99288.53;6198481;23;20154;-91
2022/07/19 17:33:46;;;;;;;4.72;0.50;;;;;;;30.85;27.82;99296.41;6224887;23;20229;-91
2022/07/19 17:36:31;;;;;;;;;;;;;;;;;;;;;
2022/07/19 17:39:00;;;;;;;1.67;0.30;;;;;;;30.57;28.23;99298.44;6225299;23;20229;-92
2022/07/19 17:41:37;;;;;;;1.30;0.38;;;;;;;30.26;28.57;99298.94;6224882;23;20173;-91
2022/07/19 17:44:03;;;;;;;1.00;0.50;;;;;;;30.37;28.36;99304.63;6224206;23;20137;-91
2022/07/19 17:46:37;;;;;;;1.60;0.43;;;;;;;30.27;28.69;99301.44;6223485;23;20523;-91
2022/07/19 17:49:07;;;;;;;3.97;0.52;;;;;;;30.36;27.83;99302.13;6198570;23;20190;-91
2022/07/19 17:51:33;;;;;;;2.15;0.50;;;;;;;30.41;28.01;99307.75;6197064;23;20152;-93
2022/07/19 17:54:29;;;;;;;2.20;0.65;;;;;;;30.41;28.09;99302.34;6198172;23;20158;-91
2022/07/19 17:56:54;;;;;;;1.30;0.50;;;;;;;30.29;28.53;99307.47;6212100;23;20176;-90
2022/07/19 17:59:30;;;;;;;5.30;0.30;;;;;;;30.09;28.66;99306.56;6224683;23;20156;-92
2022/07/19 18:01:56;;;;;;;1.77;0.50;;;;;;;30.04;28.59;99310.91;6198794;23;20540;-91
2022/07/19 18:04:21;;;;;;;2.10;0.50;;;;;;;29.96;28.53;99320.00;6198104;23;20153;-90
2022/07/19 18:06:47;;;;;;;1.50;0.50;;;;;;;29.83;28.55;99317.25;6224941;23;20146;-91
2022/07/19 18:09:17;;;;;;;0.90;0.43;;;;;;;29.91;28.76;99318.94;6197946;23;20157;-91
2022/07/19 18:11:42;;;;;;;0.55;0.40;;;;;;;30.05;28.52;99313.41;6198018;23;20217;-92
2022/07/19 18:14:10;;;;;;;2.10;0.70;;;;;;;30.15;28.50;99321.16;6193551;23;20232;-91
2022/07/19 18:16:38;;;;;;;0.68;0.38;;;;;;;30.06;28.84;99317.78;6191297;23;20161;-91
2022/07/19 18:19:05;;;;;;;1.23;0.50;;;;;;;29.93;28.78;99319.59;6191404;23;20185;-92
2022/07/19 18:21:31;;;;;;;4.68;0.85;;;;;;;29.78;29.35;99328.66;6190366;23;20503;-92
2022/07/19 18:23:58;;;;;;;4.18;1.20;;;;;;;29.72;29.97;99334.81;6190688;23;20161;-91
2022/07/19 18:26:24;;;;;;;2.03;0.55;;;;;;;29.82;30.96;99343.44;6191435;23;20149;-94
2022/07/19 18:28:50;;;;;;;1.08;0.50;;;;;;;29.83;32.14;99345.09;6191446;23;20154;-92
2022/07/19 18:31:16;;;;;;;1.70;0.63;;;;;;;29.82;30.10;99343.44;6191332;23;20643;-93
2022/07/19 18:33:41;;;;;;;5.13;0.50;;;;;;;29.75;29.62;99352.50;6190737;23;20635;-93
2022/07/19 18:36:07;;;;;;;1.38;0.50;;;;;;;29.68;30.27;99347.06;6191272;23;20165;-93
2022/07/19 18:38:33;;;;;;;1.60;0.63;;;;;;;29.49;30.20;99353.16;6190777;23;20572;-93
2022/07/19 18:40:59;;;;;;;1.52;0.55;;;;;;;29.44;29.81;99352.91;6189910;23;20169;-93
2022/07/19 18:43:24;;;;;;;1.20;0.60;;;;;;;29.40;29.87;99357.03;6189440;23;20189;-93
2022/07/19 18:45:50;;;;;;;1.60;0.60;;;;;;;29.37;30.19;99370.09;6189158;23;20220;-92
2022/07/19 18:48:28;;;;;;;1.08;0.60;;;;;;;29.20;30.08;99374.88;6191602;23;20253;-92
2022/07/19 18:50:58;;;;;;;1.23;0.60;;;;;;;28.98;30.15;99378.63;6217543;23;20134;-93
2022/07/19 18:53:26;;;;;;;1.80;0.80;;;;;;;29.03;30.67;99378.88;6191179;23;20142;-92
2022/07/19 18:55:52;;;;;;;1.35;0.60;;;;;;;29.01;30.10;99378.25;6191333;23;20296;-92
2022/07/19 18:58:17;;;;;;;1.58;0.68;;;;;;;28.96;30.78;99388.75;6191023;23;20181;-93
2022/07/19 19:00:45;;;;;;;1.73;0.77;;;;;;;28.89;30.23;99388.69;6187156;23;20232;-92
2022/07/19 19:03:21;;;;;;;5.15;1.13;;;;;;;28.89;31.40;99395.94;6190023;23;20251;-93
2022/07/19 19:05:48;;;;;;;3.13;0.93;;;;;;;28.69;30.76;99392.22;6190034;23;20156;-93
2022/07/19 19:08:17;;;;;;;2.83;0.90;;;;;;;28.51;30.94;99400.69;6189777;23;20228;-93
2022/07/19 19:10:43;;;;;;;1.75;0.70;;;;;;;28.40;31.53;99407.41;6190330;23;20161;-92
2022/07/19 19:13:09;;;;;;;9.13;1.13;;;;;;;28.31;31.16;99411.19;6190384;23;20180;-92
2022/07/19 19:15:34;;;;;;;1.50;0.80;;;;;;;28.27;31.67;99401.81;6190530;23;20484;-91
2022/07/19 19:18:01;;;;;;;2.13;0.70;;;;;;;28.16;31.30;99401.44;6190526;23;20150;-94
2022/07/19 19:20:43;;;;;;;2.47;0.80;;;;;;;28.08;31.47;99399.69;6190591;23;20554;-95
2022/07/19 19:23:12;;;;;;;2.63;0.77;;;;;;;28.13;31.37;99413.44;6189142;23;20204;-94
2022/07/19 19:25:46;;;;;;;2.03;1.05;;;;;;;28.20;31.68;99418.94;6188196;23;20161;-94
2022/07/19 19:28:21;;;;;;;3.15;0.93;;;;;;;28.18;31.74;99410.16;6188521;23;20154;-94
2022/07/19 19:30:47;;;;;;;4.68;0.50;;;;;;;28.08;31.41;99415.00;6190681;23;20149;-94
2022/07/19 19:33:14;;;;;;;2.03;0.70;;;;;;;27.90;31.83;99416.19;6190842;23;20149;-94
2022/07/19 19:35:40;;;;;;;1.60;0.70;;;;;;;27.90;31.42;99424.28;6191023;23;20180;-94
2022/07/19 19:38:16;;;;;;;1.77;0.85;;;;;;;27.75;31.61;99423.38;6190684;23;20157;-95
2022/07/19 19:40:50;;;;;;;2.58;0.60;;;;;;;27.48;32.42;99425.84;6190725;23;20142;-94
2022/07/19 19:43:18;;;;;;;3.88;1.00;;;;;;;27.56;32.83;99431.16;6190744;23;20211;-95
2022/07/19 19:45:47;;;;;;;3.88;1.00;;;;;;;27.72;32.33;99437.25;6190618;23;20161;-95
2022/07/19 19:48:17;;;;;;;3.05;0.77;;;;;;;27.75;32.55;99436.03;6191999;23;20158;-94
2022/07/19 19:50:43;;;;;;;1.73;0.60;;;;;;;27.90;32.09;99434.22;6190692;23;20150;-94
2022/07/19 19:53:13;;;;;;;2.22;0.70;;;;;;;27.77;33.05;99439.38;6191031;23;20177;-95
2022/07/19 19:55:46;;;;;;;3.33;0.60;;;;;;;27.70;32.84;99433.88;6190904;23;20146;-95
2022/07/19 19:58:13;;;;;;;0.88;0.45;;;;;;;27.69;32.73;99440.31;6190510;23;20142;-94
2022/07/19 20:00:39;;;;;;;1.25;0.52;;;;;;;27.69;32.36;99443.00;6188821;23;20489;-94
2022/07/19 20:03:04;;;;;;;0.98;0.50;;;;;;;27.59;32.88;99446.97;6189442;23;20260;-94
2022/07/19 20:05:36;;;;;;;2.25;0.75;;;;;;;27.50;33.11;99448.03;6189950;23;20154;-93
2022/07/19 20:08:06;;;;;;;1.83;0.80;;;;;;;27.44;32.97;99454.97;6190300;23;20233;-94
2022/07/19 20:10:33;;;;;;;1.40;0.70;;;;;;;27.37;33.11;99460.22;6191134;23;20560;-94
2022/07/19 20:13:00;;;;;;;3.20;0.90;;;;;;;27.32;33.08;99461.78;6181493;23;20218;-94
2022/07/19 20:15:29;;;;;;;2.15;1.00;;;;;;;27.36;33.25;99463.06;6160021;23;20174;-94
2022/07/19 20:18:06;;;;;;;;;;;;;;;;;;;;;
2022/07/19 20:20:40;;;;;;;1.45;0.80;;;;;;;27.18;33.78;99468.75;6181062;23;20224;-94
2022/07/19 20:23:07;;;;;;;1.17;0.63;;;;;;;27.08;33.72;99470.00;6160947;23;20185;-95
2022/07/19 20:25:44;;;;;;;1.93;0.70;;;;;;;27.07;33.97;99473.72;6159530;23;20586;-94
2022/07/19 20:28:09;;;;;;;1.13;0.43;;;;;;;26.99;33.82;99471.88;6160678;23;20142;-94
2022/07/19 20:30:42;;;;;;;2.05;0.52;;;;;;;26.93;33.95;99467.25;6159851;23;20161;-94
2022/07/19 20:33:11;;;;;;;1.73;0.70;;;;;;;26.84;33.97;99470.97;6160081;23;20143;-94
2022/07/19 20:35:49;;;;;;;0.93;0.40;;;;;;;26.77;34.54;99467.31;6159324;23;20154;-95
2022/07/19 20:38:15;;;;;;;1.70;0.67;;;;;;;26.65;34.68;99468.69;6160371;23;20150;-94
2022/07/19 20:40:40;;;;;;;8.23;0.73;;;;;;;26.51;35.17;99467.56;6158398;23;20613;-94
2022/07/19 20:43:08;;;;;;;2.80;0.70;;;;;;;26.39;35.00;99485.06;6158822;23;20685;-93
2022/07/19 20:45:35;;;;;;;1.53;0.50;;;;;;;26.25;35.47;99475.06;6184299;23;20146;-93
2022/07/19 20:48:00;;;;;;;2.70;1.00;;;;;;;26.10;35.93;99471.38;6158329;23;20656;-94
2022/07/19 20:50:26;;;;;;;0.70;0.40;;;;;;;25.96;36.26;99486.31;6185660;23;20178;-93
2022/07/19 20:52:52;;;;;;;1.43;0.70;;;;;;;25.83;36.46;99483.31;6158972;23;20158;-93
2022/07/19 20:55:17;;;;;;;2.03;0.60;;;;;;;25.80;36.35;99482.81;6158643;23;20150;-94
2022/07/19 20:57:43;;;;;;;1.67;0.80;;;;;;;25.69;37.12;99491.19;6160162;23;20165;-93
2022/07/19 21:00:09;;;;;;;2.27;0.80;;;;;;;25.63;37.09;99490.00;6160243;23;20165;-95
2022/07/19 21:02:36;;;;;;;1.20;0.50;;;;;;;25.56;37.45;99481.81;6160101;23;20185;-93
2022/07/19 21:05:02;;;;;;;5.30;0.63;;;;;;;25.44;37.62;99487.66;6159972;23;20154;-93